createdAt,value
2017-09-25T00:00:38.869Z,8.08
2017-09-25T00:01:38.853Z,8.08
2017-09-25T00:02:38.840Z,8.15
2017-09-25T00:03:38.983Z,8.10
2017-09-25T00:04:38.815Z,8.07
2017-09-25T00:05:38.953Z,8.16
2017-09-25T00:06:38.789Z,8.08
2017-09-25T00:07:38.779Z,8.10
2017-09-25T00:08:38.764Z,8.10
2017-09-25T00:09:38.902Z,8.15
2017-09-25T00:10:38.743Z,8.11
2017-09-25T00:11:38.730Z,7.97
2017-09-25T00:12:38.717Z,8.01
2017-09-25T00:13:38.700Z,8.02
2017-09-25T00:14:38.691Z,8.01
2017-09-25T00:15:38.824Z,8.05
2017-09-25T00:16:38.660Z,8.04
2017-09-25T00:17:38.652Z,8.04
2017-09-25T00:18:38.636Z,7.97
2017-09-25T00:19:38.622Z,7.87
2017-09-25T00:20:38.610Z,7.89
2017-09-25T00:21:38.751Z,7.85
2017-09-25T00:22:38.584Z,7.77
2017-09-25T00:23:38.569Z,7.83
2017-09-25T00:24:38.556Z,7.80
2017-09-25T00:25:38.550Z,7.80
2017-09-25T00:26:38.533Z,7.75
2017-09-25T00:27:38.668Z,7.79
2017-09-25T00:28:38.506Z,7.80
2017-09-25T00:29:38.499Z,7.85
2017-09-25T00:30:38.481Z,7.85
2017-09-25T00:31:38.467Z,7.93
2017-09-25T00:32:38.455Z,7.92
2017-09-25T00:33:38.591Z,7.87
2017-09-25T00:34:38.436Z,7.92
2017-09-25T00:35:38.421Z,7.90
2017-09-25T00:36:38.407Z,7.95
2017-09-25T00:37:38.397Z,7.93
2017-09-25T00:38:38.387Z,7.95
2017-09-25T00:39:38.513Z,8.00
2017-09-25T00:40:38.352Z,7.93
2017-09-25T00:41:38.343Z,8.04
2017-09-25T00:42:38.324Z,8.02
2017-09-25T00:43:38.310Z,8.02
2017-09-25T00:44:38.299Z,8.02
2017-09-25T00:45:38.437Z,8.01
2017-09-25T00:46:38.274Z,8.00
2017-09-25T00:47:38.263Z,7.98
2017-09-25T00:48:38.252Z,8.00
2017-09-25T00:49:38.234Z,8.02
2017-09-25T00:50:38.221Z,8.04
2017-09-25T00:51:38.360Z,8.00
2017-09-25T00:52:38.195Z,8.04
2017-09-25T00:53:38.180Z,7.97
2017-09-25T00:54:38.168Z,8.04
2017-09-25T00:55:38.154Z,8.01
2017-09-25T00:56:38.142Z,7.95
2017-09-25T00:57:38.280Z,7.93
2017-09-25T00:58:38.121Z,7.98
2017-09-25T00:59:38.102Z,7.95
2017-09-25T01:00:38.094Z,7.89
2017-09-25T01:01:38.077Z,7.93
2017-09-25T01:02:38.062Z,7.92
2017-09-25T01:03:38.199Z,7.87
2017-09-25T01:04:38.035Z,7.89
2017-09-25T01:05:38.029Z,7.86
2017-09-25T01:06:38.010Z,7.80
2017-09-25T01:07:37.997Z,7.82
2017-09-25T01:08:37.983Z,7.79
2017-09-25T01:09:38.121Z,7.80
2017-09-25T01:10:37.956Z,7.72
2017-09-25T01:11:37.942Z,7.77
2017-09-25T01:12:37.936Z,7.69
2017-09-25T01:13:37.920Z,7.71
2017-09-25T01:14:37.903Z,7.72
2017-09-25T01:15:38.041Z,7.68
2017-09-25T01:16:37.883Z,7.69
2017-09-25T01:17:37.870Z,7.69
2017-09-25T01:18:37.851Z,7.69
2017-09-25T01:19:37.839Z,7.64
2017-09-25T01:20:37.830Z,7.67
2017-09-25T01:21:37.963Z,7.67
2017-09-25T01:22:37.956Z,7.69
2017-09-25T01:23:37.785Z,7.69
2017-09-25T01:24:37.771Z,7.58
2017-09-25T01:25:37.760Z,7.61
2017-09-25T01:26:37.745Z,7.68
2017-09-25T01:27:37.733Z,7.75
2017-09-25T01:28:37.875Z,7.68
2017-09-25T01:29:37.706Z,7.61
2017-09-25T01:30:37.694Z,7.77
2017-09-25T01:31:37.685Z,7.72
2017-09-25T01:32:37.672Z,7.83
2017-09-25T01:33:37.653Z,7.71
2017-09-25T01:34:37.797Z,7.60
2017-09-25T01:35:37.626Z,7.71
2017-09-25T01:36:37.614Z,7.64
2017-09-25T01:37:37.600Z,7.63
2017-09-25T01:38:37.587Z,7.71
2017-09-25T01:39:37.580Z,7.67
2017-09-25T01:40:37.709Z,7.61
2017-09-25T01:41:37.702Z,7.61
2017-09-25T01:42:37.535Z,7.53
2017-09-25T01:43:37.525Z,7.53
2017-09-25T01:44:37.506Z,7.58
2017-09-25T01:45:37.492Z,7.60
2017-09-25T01:46:37.480Z,7.61
2017-09-25T01:47:37.616Z,7.55
2017-09-25T01:48:37.458Z,7.63
2017-09-25T01:49:37.439Z,7.60
2017-09-25T01:50:37.427Z,7.55
2017-09-25T01:51:37.412Z,7.60
2017-09-25T01:52:37.404Z,7.58
2017-09-25T01:53:37.537Z,7.61
2017-09-25T01:54:37.373Z,7.60
2017-09-25T01:55:37.358Z,7.58
2017-09-25T01:56:37.347Z,7.58
2017-09-25T01:57:37.333Z,7.58
2017-09-25T01:58:37.319Z,7.55
2017-09-25T01:59:37.456Z,7.61
2017-09-25T02:00:37.294Z,7.63
2017-09-25T02:01:37.279Z,7.58
2017-09-25T02:02:37.271Z,7.64
2017-09-25T02:03:37.257Z,7.58
2017-09-25T02:04:37.245Z,7.60
2017-09-25T02:05:37.384Z,7.58
2017-09-25T02:06:37.213Z,7.58
2017-09-25T02:07:37.199Z,7.60
2017-09-25T02:08:37.192Z,7.53
2017-09-25T02:09:37.172Z,7.58
2017-09-25T02:10:37.160Z,7.60
2017-09-25T02:11:37.301Z,7.53
2017-09-25T02:12:37.134Z,7.58
2017-09-25T02:13:37.124Z,7.61
2017-09-25T02:14:37.107Z,7.68
2017-09-25T02:15:37.093Z,7.61
2017-09-25T02:16:37.236Z,7.64
2017-09-25T02:17:37.217Z,7.61
2017-09-25T02:18:37.053Z,7.58
2017-09-25T02:19:37.040Z,7.60
2017-09-25T02:20:37.026Z,7.69
2017-09-25T02:21:37.015Z,7.60
2017-09-25T02:22:37.012Z,7.61
2017-09-25T02:23:37.136Z,7.68
2017-09-25T02:24:36.974Z,7.64
2017-09-25T02:25:36.966Z,7.68
2017-09-25T02:26:36.953Z,7.69
2017-09-25T02:27:36.933Z,7.67
2017-09-25T02:28:36.920Z,7.60
2017-09-25T02:29:37.057Z,7.69
2017-09-25T02:30:36.894Z,7.61
2017-09-25T02:31:36.881Z,7.61
2017-09-25T02:32:36.868Z,7.57
2017-09-25T02:33:36.854Z,7.69
2017-09-25T02:34:36.845Z,7.61
2017-09-25T02:35:36.977Z,7.68
2017-09-25T02:36:36.813Z,7.57
2017-09-25T02:37:36.800Z,7.57
2017-09-25T02:38:36.788Z,7.64
2017-09-25T02:39:36.923Z,7.63
2017-09-25T02:40:36.763Z,7.64
2017-09-25T02:41:36.898Z,7.67
2017-09-25T02:42:36.736Z,7.64
2017-09-25T02:43:36.720Z,7.63
2017-09-25T02:44:36.706Z,7.69
2017-09-25T02:45:36.695Z,7.57
2017-09-25T02:46:36.680Z,7.52
2017-09-25T02:47:36.817Z,7.55
2017-09-25T02:48:36.653Z,7.67
2017-09-25T02:49:36.643Z,7.71
2017-09-25T02:50:36.628Z,7.58
2017-09-25T02:51:36.614Z,7.57
2017-09-25T02:52:36.602Z,7.58
2017-09-25T02:53:36.745Z,7.68
2017-09-25T02:54:36.581Z,7.58
2017-09-25T02:55:36.560Z,7.55
2017-09-25T02:56:36.548Z,7.52
2017-09-25T02:57:36.534Z,7.63
2017-09-25T02:58:36.522Z,7.57
2017-09-25T02:59:36.658Z,7.61
2017-09-25T03:00:36.496Z,7.63
2017-09-25T03:01:36.486Z,7.49
2017-09-25T03:02:36.467Z,7.63
2017-09-25T03:03:36.454Z,7.49
2017-09-25T03:04:36.441Z,7.60
2017-09-25T03:05:36.584Z,7.57
2017-09-25T03:06:36.417Z,7.61
2017-09-25T03:07:36.400Z,7.52
2017-09-25T03:08:36.386Z,7.57
2017-09-25T03:09:36.375Z,7.63
2017-09-25T03:10:36.362Z,7.61
2017-09-25T03:11:36.503Z,7.63
2017-09-25T03:12:36.334Z,7.57
2017-09-25T03:13:36.336Z,7.55
2017-09-25T03:14:36.310Z,7.60
2017-09-25T03:15:36.298Z,7.58
2017-09-25T03:16:36.281Z,7.53
2017-09-25T03:17:36.416Z,7.60
2017-09-25T03:18:36.403Z,7.64
2017-09-25T03:19:36.245Z,7.50
2017-09-25T03:20:36.228Z,7.58
2017-09-25T03:21:36.213Z,7.63
2017-09-25T03:22:36.201Z,7.63
2017-09-25T03:23:36.339Z,7.61
2017-09-25T03:24:36.179Z,7.60
2017-09-25T03:25:36.163Z,7.60
2017-09-25T03:26:36.303Z,7.58
2017-09-25T03:27:36.137Z,7.67
2017-09-25T03:28:36.121Z,7.61
2017-09-25T03:29:36.260Z,7.49
2017-09-25T03:30:36.095Z,7.53
2017-09-25T03:31:36.081Z,7.53
2017-09-25T03:32:36.065Z,7.58
2017-09-25T03:33:36.059Z,7.57
2017-09-25T03:34:36.191Z,7.46
2017-09-25T03:35:36.176Z,7.52
2017-09-25T03:36:36.012Z,7.61
2017-09-25T03:37:35.998Z,7.57
2017-09-25T03:38:35.985Z,7.52
2017-09-25T03:39:35.973Z,7.55
2017-09-25T03:40:36.116Z,7.69
2017-09-25T03:41:35.951Z,7.63
2017-09-25T03:42:35.932Z,7.57
2017-09-25T03:43:35.917Z,7.58
2017-09-25T03:44:35.905Z,7.61
2017-09-25T03:45:35.891Z,7.57
2017-09-25T03:46:36.030Z,7.53
2017-09-25T03:47:35.863Z,7.60
2017-09-25T03:48:35.852Z,7.57
2017-09-25T03:49:35.837Z,7.55
2017-09-25T03:50:35.825Z,7.58
2017-09-25T03:51:35.816Z,7.58
2017-09-25T03:52:35.947Z,7.53
2017-09-25T03:53:35.788Z,7.58
2017-09-25T03:54:35.771Z,7.49
2017-09-25T03:55:35.762Z,7.55
2017-09-25T03:56:35.743Z,7.55
2017-09-25T03:57:35.729Z,7.50
2017-09-25T03:58:35.872Z,7.52
2017-09-25T03:59:35.703Z,7.53
2017-09-25T04:00:35.700Z,7.58
2017-09-25T04:01:35.677Z,7.57
2017-09-25T04:02:35.663Z,7.52
2017-09-25T04:03:35.648Z,7.58
2017-09-25T04:04:35.636Z,7.57
2017-09-25T04:05:35.777Z,7.57
2017-09-25T04:06:35.618Z,7.52
2017-09-25T04:07:35.594Z,7.48
2017-09-25T04:08:35.582Z,7.50
2017-09-25T04:09:35.569Z,7.49
2017-09-25T04:10:35.554Z,7.52
2017-09-25T04:11:35.691Z,7.52
2017-09-25T04:12:35.532Z,7.43
2017-09-25T04:13:35.669Z,7.48
2017-09-25T04:14:35.501Z,7.50
2017-09-25T04:15:35.487Z,7.45
2017-09-25T04:16:35.473Z,7.48
2017-09-25T04:17:35.609Z,7.46
2017-09-25T04:18:35.447Z,7.43
2017-09-25T04:19:35.432Z,7.42
2017-09-25T04:20:35.419Z,7.39
2017-09-25T04:21:35.405Z,7.40
2017-09-25T04:22:35.392Z,7.42
2017-09-25T04:23:35.535Z,7.40
2017-09-25T04:24:35.514Z,7.37
2017-09-25T04:25:35.357Z,7.42
2017-09-25T04:26:35.343Z,7.40
2017-09-25T04:27:35.328Z,7.37
2017-09-25T04:28:35.317Z,7.37
2017-09-25T04:29:35.297Z,7.37
2017-09-25T04:30:35.439Z,7.39
2017-09-25T04:31:35.270Z,7.30
2017-09-25T04:32:35.256Z,7.34
2017-09-25T04:33:35.243Z,7.34
2017-09-25T04:34:35.235Z,7.27
2017-09-25T04:35:35.218Z,7.27
2017-09-25T04:36:35.365Z,7.35
2017-09-25T04:37:35.189Z,7.32
2017-09-25T04:38:35.176Z,7.28
2017-09-25T04:39:35.162Z,7.31
2017-09-25T04:40:35.147Z,7.32
2017-09-25T04:41:35.134Z,7.28
2017-09-25T04:42:35.276Z,7.24
2017-09-25T04:43:35.106Z,7.17
2017-09-25T04:44:35.099Z,7.23
2017-09-25T04:45:35.080Z,7.12
2017-09-25T04:46:35.066Z,7.21
2017-09-25T04:47:35.052Z,7.16
2017-09-25T04:48:35.198Z,7.17
2017-09-25T04:49:35.031Z,7.10
2017-09-25T04:50:35.013Z,7.12
2017-09-25T04:51:34.997Z,7.06
2017-09-25T04:52:34.983Z,6.98
2017-09-25T04:53:34.970Z,7.03
2017-09-25T04:54:35.114Z,6.95
2017-09-25T04:55:34.942Z,6.97
2017-09-25T04:56:34.930Z,6.92
2017-09-25T04:57:34.962Z,6.89
2017-09-25T04:58:34.937Z,6.94
2017-09-25T04:59:34.895Z,6.89
2017-09-25T05:00:35.023Z,6.87
2017-09-25T05:01:34.917Z,6.74
2017-09-25T05:02:34.851Z,6.73
2017-09-25T05:03:34.835Z,6.80
2017-09-25T05:04:34.817Z,6.73
2017-09-25T05:05:34.801Z,6.77
2017-09-25T05:06:34.939Z,6.76
2017-09-25T05:07:34.773Z,6.79
2017-09-25T05:08:34.761Z,6.71
2017-09-25T05:09:34.752Z,6.66
2017-09-25T05:10:34.732Z,6.64
2017-09-25T05:11:34.723Z,6.66
2017-09-25T05:12:34.853Z,6.62
2017-09-25T05:13:34.689Z,6.64
2017-09-25T05:14:34.677Z,6.66
2017-09-25T05:15:34.666Z,6.62
2017-09-25T05:16:34.802Z,6.59
2017-09-25T05:17:34.784Z,6.59
2017-09-25T05:18:34.618Z,6.59
2017-09-25T05:19:34.603Z,6.64
2017-09-25T05:20:34.588Z,6.55
2017-09-25T05:21:34.575Z,6.61
2017-09-25T05:22:34.561Z,6.58
2017-09-25T05:23:34.695Z,6.54
2017-09-25T05:24:34.532Z,6.52
2017-09-25T05:25:34.525Z,6.55
2017-09-25T05:26:34.504Z,6.56
2017-09-25T05:27:34.488Z,6.51
2017-09-25T05:30:28.689Z,6.48
2017-09-25T05:31:28.521Z,6.49
2017-09-25T05:32:28.508Z,6.51
2017-09-25T05:33:28.492Z,6.49
2017-09-25T05:34:28.479Z,6.55
2017-09-25T05:35:28.465Z,6.48
2017-09-25T05:36:28.601Z,6.51
2017-09-25T05:37:28.434Z,6.52
2017-09-25T05:38:28.421Z,6.51
2017-09-25T05:39:28.408Z,6.49
2017-09-25T05:40:28.392Z,6.56
2017-09-25T05:41:28.380Z,6.49
2017-09-25T05:42:28.514Z,6.59
2017-09-25T05:43:28.349Z,6.55
2017-09-25T05:44:28.336Z,6.56
2017-09-25T05:45:28.321Z,6.49
2017-09-25T05:46:28.307Z,6.43
2017-09-25T05:47:28.293Z,6.46
2017-09-25T05:48:28.431Z,6.36
2017-09-25T05:49:28.264Z,6.34
2017-09-25T05:50:28.249Z,6.36
2017-09-25T05:51:28.235Z,6.41
2017-09-25T05:52:28.221Z,6.40
2017-09-25T05:53:28.207Z,6.43
2017-09-25T05:54:28.342Z,6.55
2017-09-25T05:55:28.177Z,6.48
2017-09-25T05:56:28.163Z,6.59
2017-09-25T05:57:28.149Z,6.54
2017-09-25T05:58:28.135Z,6.58
2017-09-25T05:59:28.121Z,6.69
2017-09-25T06:00:28.255Z,6.58
2017-09-25T06:01:28.092Z,6.59
2017-09-25T06:02:28.078Z,6.64
2017-09-25T06:03:28.063Z,6.70
2017-09-25T06:04:28.049Z,6.71
2017-09-25T06:05:28.033Z,6.76
2017-09-25T06:06:28.170Z,6.74
2017-09-25T06:07:28.006Z,6.73
2017-09-25T06:08:27.992Z,6.76
2017-09-25T06:09:27.977Z,6.71
2017-09-25T06:10:27.961Z,6.70
2017-09-25T06:11:27.948Z,6.73
2017-09-25T06:12:28.084Z,6.77
2017-09-25T06:13:27.919Z,6.80
2017-09-25T06:14:27.904Z,6.88
2017-09-25T06:15:27.889Z,6.85
2017-09-25T06:16:27.878Z,6.84
2017-09-25T06:17:27.862Z,6.95
2017-09-25T06:18:28.070Z,6.91
2017-09-25T06:19:27.839Z,6.95
2017-09-25T06:20:27.835Z,6.98
2017-09-25T06:21:27.815Z,6.95
2017-09-25T06:22:27.796Z,6.98
2017-09-25T06:23:27.794Z,6.95
2017-09-25T06:24:27.986Z,6.94
2017-09-25T06:25:27.756Z,6.98
2017-09-25T06:26:27.750Z,6.94
2017-09-25T06:27:27.730Z,6.98
2017-09-25T06:28:27.714Z,6.97
2017-09-25T06:29:27.694Z,7.02
2017-09-25T06:30:27.830Z,6.98
2017-09-25T06:31:27.672Z,7.13
2017-09-25T06:32:27.667Z,7.35
2017-09-25T06:33:27.638Z,7.67
2017-09-25T06:34:27.624Z,7.82
2017-09-25T06:35:27.611Z,8.08
2017-09-25T06:36:27.813Z,8.23
2017-09-25T06:37:27.585Z,8.37
2017-09-25T06:38:27.574Z,8.45
2017-09-25T06:39:27.560Z,8.62
2017-09-25T06:40:27.546Z,8.61
2017-09-25T06:41:27.535Z,8.66
2017-09-25T06:42:27.673Z,8.81
2017-09-25T06:43:27.508Z,8.73
2017-09-25T06:44:27.494Z,8.95
2017-09-25T06:45:27.500Z,9.08
2017-09-25T06:46:27.481Z,9.21
2017-09-25T06:47:27.475Z,9.39
2017-09-25T06:48:27.666Z,9.56
2017-09-25T06:49:27.434Z,9.86
2017-09-25T06:50:27.421Z,10.23
2017-09-25T06:51:27.416Z,10.38
2017-09-25T06:52:27.399Z,10.36
2017-09-25T06:53:27.386Z,10.20
2017-09-25T06:54:27.526Z,10.26
2017-09-25T06:55:27.367Z,10.04
2017-09-25T06:56:27.356Z,9.94
2017-09-25T06:57:27.343Z,9.89
2017-09-25T06:58:27.334Z,9.78
2017-09-25T06:59:27.321Z,9.84
2017-09-25T07:00:27.460Z,10.01
2017-09-25T07:01:27.448Z,10.07
2017-09-25T07:02:27.286Z,10.18
2017-09-25T07:03:27.276Z,10.22
2017-09-25T07:04:27.266Z,10.23
2017-09-25T07:05:27.253Z,10.15
2017-09-25T07:06:27.243Z,10.12
2017-09-25T07:07:27.381Z,10.01
2017-09-25T07:08:27.222Z,9.97
2017-09-25T07:09:27.209Z,10.01
2017-09-25T07:10:27.199Z,10.22
2017-09-25T07:11:27.187Z,10.48
2017-09-25T07:12:27.176Z,10.94
2017-09-25T07:13:27.317Z,11.17
2017-09-25T07:14:27.157Z,11.42
2017-09-25T07:15:27.144Z,11.67
2017-09-25T07:16:27.133Z,11.96
2017-09-25T07:17:27.126Z,12.39
2017-09-25T07:18:27.114Z,12.67
2017-09-25T07:19:27.255Z,13.04
2017-09-25T07:20:27.093Z,13.41
2017-09-25T07:21:27.084Z,13.41
2017-09-25T07:22:27.081Z,13.32
2017-09-25T07:23:27.064Z,13.12
2017-09-25T07:24:27.056Z,13.04
2017-09-25T07:25:27.195Z,12.86
2017-09-25T07:26:27.034Z,12.79
2017-09-25T07:27:27.026Z,12.68
2017-09-25T07:28:27.047Z,12.74
2017-09-25T07:29:27.007Z,12.65
2017-09-25T07:30:26.997Z,12.62
2017-09-25T07:31:27.139Z,12.46
2017-09-25T07:32:26.980Z,12.65
2017-09-25T07:33:26.968Z,12.62
2017-09-25T07:34:26.960Z,12.64
2017-09-25T07:35:26.952Z,12.45
2017-09-25T07:36:26.943Z,12.47
2017-09-25T07:37:27.081Z,12.37
2017-09-25T07:38:26.921Z,12.60
2017-09-25T07:39:26.913Z,12.77
2017-09-25T07:40:26.905Z,13.00
2017-09-25T07:41:26.894Z,13.22
2017-09-25T07:42:26.887Z,13.52
2017-09-25T07:43:27.025Z,13.77
2017-09-25T07:44:26.869Z,13.99
2017-09-25T07:45:26.859Z,14.45
2017-09-25T07:46:26.849Z,14.83
2017-09-25T07:47:26.841Z,15.10
2017-09-25T07:48:26.831Z,15.31
2017-09-25T07:49:26.972Z,15.53
2017-09-25T07:50:26.814Z,15.75
2017-09-25T07:51:26.807Z,16.17
2017-09-25T07:52:26.796Z,15.87
2017-09-25T07:53:26.787Z,15.57
2017-09-25T07:54:26.779Z,14.83
2017-09-25T07:55:26.919Z,14.47
2017-09-25T07:56:26.761Z,13.99
2017-09-25T07:57:26.751Z,13.82
2017-09-25T07:58:26.745Z,13.87
2017-09-25T07:59:26.735Z,13.88
2017-09-25T08:00:26.726Z,14.32
2017-09-25T08:01:26.866Z,14.95
2017-09-25T08:02:26.706Z,15.72
2017-09-25T08:03:26.700Z,16.57
2017-09-25T08:04:26.689Z,17.72
2017-09-25T08:05:26.682Z,18.39
2017-09-25T08:06:26.675Z,19.13
2017-09-25T08:07:26.816Z,19.43
2017-09-25T08:08:26.659Z,19.92
2017-09-25T08:09:26.677Z,19.94
2017-09-25T08:10:26.645Z,20.50
2017-09-25T08:11:26.791Z,20.61
2017-09-25T08:12:26.636Z,21.16
2017-09-25T08:13:26.777Z,21.40
2017-09-25T08:14:26.624Z,21.42
2017-09-25T08:15:26.619Z,21.68
2017-09-25T08:16:26.617Z,21.94
2017-09-25T08:17:26.612Z,22.40
2017-09-25T08:18:26.610Z,22.77
2017-09-25T08:19:26.758Z,23.23
2017-09-25T08:20:26.607Z,22.94
2017-09-25T08:21:26.603Z,22.67
2017-09-25T08:22:26.604Z,22.35
2017-09-25T08:23:26.604Z,22.00
2017-09-25T08:24:26.605Z,21.65
2017-09-25T08:25:26.756Z,21.28
2017-09-25T08:26:26.612Z,20.87
2017-09-25T08:27:26.608Z,20.43
2017-09-25T08:28:26.610Z,19.98
2017-09-25T08:29:26.613Z,19.58
2017-09-25T08:30:26.766Z,18.84
2017-09-25T08:31:26.772Z,18.52
2017-09-25T08:32:26.625Z,18.33
2017-09-25T08:33:26.631Z,18.41
2017-09-25T08:34:26.634Z,18.29
2017-09-25T08:35:26.640Z,17.97
2017-09-25T08:36:26.646Z,17.66
2017-09-25T08:37:26.803Z,17.49
2017-09-25T08:38:26.657Z,17.44
2017-09-25T08:39:26.817Z,17.15
2017-09-25T08:40:26.673Z,17.03
2017-09-25T08:41:26.679Z,16.76
2017-09-25T08:42:26.688Z,16.64
2017-09-25T08:43:26.845Z,16.43
2017-09-25T08:44:26.703Z,16.41
2017-09-25T08:45:26.862Z,16.38
2017-09-25T08:46:26.719Z,16.31
2017-09-25T08:47:26.727Z,16.08
2017-09-25T08:48:26.733Z,15.97
2017-09-25T08:49:26.896Z,15.69
2017-09-25T08:50:26.748Z,15.80
2017-09-25T08:51:26.756Z,15.72
2017-09-25T08:52:26.764Z,15.62
2017-09-25T08:53:26.776Z,15.53
2017-09-25T08:54:26.929Z,15.43
2017-09-25T08:55:26.786Z,15.31
2017-09-25T08:56:26.945Z,15.34
2017-09-25T08:57:26.801Z,15.36
2017-09-25T08:58:26.808Z,15.69
2017-09-25T08:59:26.819Z,15.59
2017-09-25T09:00:26.821Z,15.39
2017-09-25T09:01:26.974Z,15.60
2017-09-25T09:02:26.980Z,15.49
2017-09-25T09:03:26.835Z,15.36
2017-09-25T09:04:26.841Z,15.16
2017-09-25T09:05:26.844Z,14.94
2017-09-25T09:06:26.846Z,14.72
2017-09-25T09:07:26.851Z,14.68
2017-09-25T09:08:27.003Z,14.47
2017-09-25T09:09:27.005Z,14.37
2017-09-25T09:10:26.857Z,14.27
2017-09-25T09:11:26.858Z,14.06
2017-09-25T09:12:26.857Z,13.85
2017-09-25T09:13:26.856Z,13.70
2017-09-25T09:14:27.005Z,13.57
2017-09-25T09:15:26.855Z,13.48
2017-09-25T09:16:27.154Z,13.45
2017-09-25T09:17:26.848Z,13.45
2017-09-25T09:18:26.848Z,13.42
2017-09-25T09:19:26.843Z,13.46
2017-09-25T09:20:27.092Z,13.45
2017-09-25T09:21:26.838Z,13.44
2017-09-25T09:22:26.834Z,13.60
2017-09-25T09:23:26.830Z,13.70
2017-09-25T09:24:26.832Z,13.73
2017-09-25T09:25:26.822Z,13.88
2017-09-25T09:26:26.971Z,13.91
2017-09-25T09:27:26.810Z,13.89
2017-09-25T09:28:26.805Z,13.78
2017-09-25T09:29:26.802Z,13.64
2017-09-25T09:30:26.794Z,13.66
2017-09-25T09:31:26.791Z,13.66
2017-09-25T09:32:26.986Z,13.62
2017-09-25T09:33:26.780Z,13.73
2017-09-25T09:34:26.772Z,13.63
2017-09-25T09:35:26.766Z,13.64
2017-09-25T09:36:26.911Z,13.63
2017-09-25T09:37:26.754Z,13.59
2017-09-25T09:38:26.898Z,13.62
2017-09-25T09:39:26.741Z,13.59
2017-09-25T09:40:26.735Z,13.62
2017-09-25T09:41:26.727Z,13.66
2017-09-25T09:42:26.719Z,13.70
2017-09-25T09:43:26.716Z,13.63
2017-09-25T09:44:27.008Z,13.75
2017-09-25T09:45:26.700Z,13.82
2017-09-25T09:46:26.994Z,13.99
2017-09-25T09:47:26.685Z,14.36
2017-09-25T09:48:26.678Z,14.65
2017-09-25T09:49:26.672Z,14.73
2017-09-25T09:50:26.815Z,14.89
2017-09-25T09:51:26.664Z,14.92
2017-09-25T09:52:26.649Z,14.92
2017-09-25T09:53:26.648Z,14.95
2017-09-25T09:54:26.637Z,14.96
2017-09-25T09:55:26.929Z,14.91
2017-09-25T09:56:26.905Z,14.88
2017-09-25T09:57:26.616Z,14.73
2017-09-25T09:58:26.607Z,14.64
2017-09-25T09:59:26.602Z,14.52
2017-09-25T10:00:26.599Z,14.45
2017-09-25T10:01:26.585Z,14.36
2017-09-25T10:02:26.829Z,14.47
2017-09-25T10:03:26.573Z,14.45
2017-09-25T10:04:26.566Z,14.51
2017-09-25T10:05:26.557Z,14.61
2017-09-25T10:06:26.549Z,14.52
2017-09-25T10:07:26.544Z,14.50
2017-09-25T10:08:26.838Z,14.42
2017-09-25T10:09:26.535Z,14.55
2017-09-25T10:10:26.521Z,14.52
2017-09-25T10:11:26.513Z,14.62
2017-09-25T10:12:26.507Z,14.83
2017-09-25T10:13:26.502Z,14.94
2017-09-25T10:14:26.792Z,14.95
2017-09-25T10:15:26.483Z,15.01
2017-09-25T10:16:26.475Z,14.77
2017-09-25T10:17:26.468Z,14.78
2017-09-25T10:18:26.463Z,14.68
2017-09-25T10:19:26.454Z,14.68
2017-09-25T10:20:26.747Z,14.70
2017-09-25T10:21:26.438Z,14.58
2017-09-25T10:22:26.431Z,14.42
2017-09-25T10:23:26.424Z,14.32
2017-09-25T10:24:26.415Z,14.39
2017-09-25T10:25:26.406Z,14.46
2017-09-25T10:26:26.650Z,14.45
2017-09-25T10:27:26.392Z,14.58
2017-09-25T10:28:26.391Z,14.62
2017-09-25T10:29:26.376Z,14.78
2017-09-25T10:30:26.368Z,14.81
2017-09-25T10:31:26.361Z,14.81
2017-09-25T10:32:26.503Z,14.86
2017-09-25T10:33:26.344Z,14.78
2017-09-25T10:34:26.337Z,14.61
2017-09-25T10:35:26.330Z,14.58
2017-09-25T10:36:26.322Z,14.61
2017-09-25T10:37:26.316Z,14.60
2017-09-25T10:38:26.455Z,14.64
2017-09-25T10:39:26.447Z,14.68
2017-09-25T10:40:26.290Z,14.80
2017-09-25T10:41:26.283Z,14.95
2017-09-25T10:42:26.274Z,15.03
2017-09-25T10:43:26.266Z,15.17
2017-09-25T10:44:26.261Z,15.39
2017-09-25T10:45:26.502Z,15.23
2017-09-25T10:46:26.243Z,15.14
2017-09-25T10:47:26.234Z,15.34
2017-09-25T10:48:26.228Z,15.34
2017-09-25T10:49:26.219Z,15.31
2017-09-25T10:50:26.210Z,15.39
2017-09-25T10:51:26.356Z,15.54
2017-09-25T10:52:26.196Z,15.59
2017-09-25T10:53:26.187Z,15.69
2017-09-25T10:54:26.177Z,15.54
2017-09-25T10:55:26.170Z,15.44
2017-09-25T10:56:26.162Z,15.31
2017-09-25T10:57:26.409Z,15.25
2017-09-25T10:58:26.149Z,15.17
2017-09-25T10:59:26.141Z,15.13
2017-09-25T11:00:26.134Z,15.06
2017-09-25T11:01:26.124Z,14.96
2017-09-25T11:02:26.117Z,14.83
2017-09-25T11:03:26.259Z,14.77
2017-09-25T11:04:26.102Z,14.91
2017-09-25T11:05:26.095Z,15.01
2017-09-25T11:06:26.086Z,15.14
2017-09-25T11:07:26.079Z,15.43
2017-09-25T11:08:26.072Z,15.67
2017-09-25T11:09:26.311Z,15.92
2017-09-25T11:10:26.053Z,16.08
2017-09-25T11:11:26.047Z,16.23
2017-09-25T11:12:26.040Z,16.30
2017-09-25T11:13:26.031Z,16.45
2017-09-25T11:14:26.025Z,16.52
2017-09-25T11:15:26.166Z,16.56
2017-09-25T11:16:26.161Z,16.50
2017-09-25T11:17:26.002Z,16.60
2017-09-25T11:18:25.995Z,16.78
2017-09-25T11:19:25.988Z,16.78
2017-09-25T11:20:25.981Z,16.76
2017-09-25T11:21:25.975Z,16.76
2017-09-25T11:22:26.216Z,16.57
2017-09-25T11:23:25.959Z,16.58
2017-09-25T11:24:25.953Z,16.66
2017-09-25T11:25:25.946Z,16.63
2017-09-25T11:26:25.937Z,16.61
2017-09-25T11:27:25.932Z,16.56
2017-09-25T11:28:26.175Z,16.57
2017-09-25T11:29:25.916Z,16.61
2017-09-25T11:30:25.910Z,16.53
2017-09-25T11:31:25.904Z,16.49
2017-09-25T11:32:25.896Z,16.35
2017-09-25T11:33:25.887Z,16.31
2017-09-25T11:34:26.031Z,16.09
2017-09-25T11:35:25.875Z,16.11
2017-09-25T11:36:25.867Z,16.07
2017-09-25T11:37:25.861Z,16.07
2017-09-25T11:38:25.852Z,16.05
2017-09-25T11:39:25.847Z,16.00
2017-09-25T11:40:25.989Z,16.05
2017-09-25T11:41:25.831Z,15.96
2017-09-25T11:42:25.825Z,15.89
2017-09-25T11:43:25.818Z,15.80
2017-09-25T11:44:25.811Z,15.65
2017-09-25T11:45:25.805Z,15.68
2017-09-25T11:46:25.945Z,15.65
2017-09-25T11:47:25.789Z,15.62
2017-09-25T11:48:25.783Z,15.64
2017-09-25T11:49:25.775Z,15.64
2017-09-25T11:50:25.766Z,15.65
2017-09-25T11:51:25.759Z,15.56
2017-09-25T11:52:25.904Z,15.50
2017-09-25T11:53:25.746Z,15.41
2017-09-25T11:54:25.737Z,15.28
2017-09-25T11:55:25.732Z,15.34
2017-09-25T11:56:25.725Z,15.20
2017-09-25T11:57:25.717Z,15.17
2017-09-25T11:58:25.859Z,15.10
2017-09-25T11:59:25.702Z,14.98
2017-09-25T12:00:25.695Z,14.91
2017-09-25T12:01:25.685Z,14.81
2017-09-25T12:02:25.882Z,14.86
2017-09-25T12:03:25.670Z,14.80
2017-09-25T12:04:25.814Z,14.77
2017-09-25T12:05:25.655Z,14.75
2017-09-25T12:06:25.649Z,14.80
2017-09-25T12:07:25.641Z,14.77
2017-09-25T12:08:25.633Z,14.73
2017-09-25T12:09:25.625Z,14.73
2017-09-25T12:10:25.917Z,14.89
2017-09-25T12:11:25.610Z,14.84
2017-09-25T12:12:25.602Z,14.84
2017-09-25T12:13:25.595Z,14.84
2017-09-25T12:14:25.588Z,14.84
2017-09-25T12:15:25.579Z,14.84
2017-09-25T12:16:25.821Z,14.84
2017-09-25T12:17:25.563Z,14.88
2017-09-25T12:18:25.593Z,14.91
2017-09-25T12:19:25.547Z,14.89
2017-09-25T12:20:25.691Z,14.86
2017-09-25T12:21:25.532Z,14.88
2017-09-25T12:22:25.678Z,14.83
2017-09-25T12:23:25.517Z,14.91
2017-09-25T12:24:25.509Z,14.91
2017-09-25T12:25:25.499Z,14.86
2017-09-25T12:26:25.491Z,14.91
2017-09-25T12:27:25.485Z,14.94
2017-09-25T12:28:25.729Z,15.03
2017-09-25T12:29:25.469Z,15.01
2017-09-25T12:30:25.461Z,14.96
2017-09-25T12:31:25.604Z,14.92
2017-09-25T12:32:25.445Z,14.89
2017-09-25T12:33:25.437Z,14.99
2017-09-25T12:34:25.628Z,14.91
2017-09-25T12:35:25.426Z,14.98
2017-09-25T12:36:25.415Z,14.94
2017-09-25T12:37:25.406Z,14.96
2017-09-25T12:38:25.549Z,14.94
2017-09-25T12:39:25.390Z,14.98
2017-09-25T12:40:25.534Z,14.94
2017-09-25T12:41:25.374Z,14.95
2017-09-25T12:42:25.367Z,14.99
2017-09-25T12:43:25.361Z,15.02
2017-09-25T12:44:25.352Z,15.11
2017-09-25T12:45:25.344Z,14.95
2017-09-25T12:46:25.489Z,15.06
2017-09-25T12:47:25.329Z,14.98
2017-09-25T12:48:25.321Z,15.06
2017-09-25T12:49:25.313Z,15.10
2017-09-25T12:50:25.305Z,15.16
2017-09-25T12:51:25.301Z,15.16
2017-09-25T12:52:25.441Z,15.14
2017-09-25T12:53:25.281Z,15.28
2017-09-25T12:54:25.274Z,15.28
2017-09-25T12:55:25.267Z,15.36
2017-09-25T12:56:25.259Z,15.46
2017-09-25T12:57:25.255Z,15.41
2017-09-25T12:58:25.443Z,15.36
2017-09-25T12:59:25.236Z,15.39
2017-09-25T13:00:25.229Z,15.43
2017-09-25T13:01:25.221Z,15.41
2017-09-25T13:02:25.214Z,15.36
2017-09-25T13:03:25.209Z,15.36
2017-09-25T13:04:25.350Z,15.27
2017-09-25T13:05:25.190Z,15.29
2017-09-25T13:06:25.187Z,15.20
2017-09-25T13:07:25.181Z,15.13
2017-09-25T13:08:25.168Z,15.13